首页
METAR-TAF:

METAR-TAF

机场 :

石家庄市, 中华人民共和国

石家庄正定国际机场

纬度: 38-16-51N, 经度: 114-41-48E, 海拔: 233米

当前天气观测

该预报发布于10分钟前的00:00 UTC
风速2节,风向西转西南
温度 -4°C
湿度 63%
气压 1027 hPa
能見度: 5000

METAR: ZBSJ 250000Z 24001MPS 5000 FU NSC M04/M10 Q1027 NOSIG

时间: 08:10 (00:10 UTC)

预报

该预报发布于5小时和6分钟前的19:04 UTC
预报有效从25日的 00点(UTC)到 25日的 24点(UTC)
风速8节,风向
能見度: 4000

TAF: ZBSJ 241904Z 2500/2524 17004MPS 4000 HZ NSC TX04/2506Z TNM06/21Z

超过4000个机场的气象观测和天气预报(METAR&TAF报告)。

可查询的气象台以黄色和红色小点在地图上表示。

将鼠标移到小点上方,可查看气象台名称。

然后点击查看天气观测和预报。

如需切换地图:点击带黑十字的绿色按钮放大地图;点击带横线的绿色按钮缩小地图;或者点击绿色箭头查看邻近地区的地图。


METAR-TAF: